createdAt,value
2022-08-19T00:01:37.950Z,94796.25
2022-08-19T00:04:08.269Z,94799.34
2022-08-19T00:06:36.527Z,94801.72
2022-08-19T00:09:07.743Z,94811.00
2022-08-19T00:11:38.527Z,94807.22
2022-08-19T00:14:07.078Z,94805.19
2022-08-19T00:16:34.022Z,94804.72
2022-08-19T00:19:00.906Z,94816.41
2022-08-19T00:21:28.016Z,94815.63
2022-08-19T00:23:59.069Z,94813.59
2022-08-19T00:26:27.938Z,94825.50
2022-08-19T00:28:55.435Z,94804.72
2022-08-19T00:31:22.726Z,94815.25
2022-08-19T00:33:51.503Z,94822.66
2022-08-19T00:36:18.588Z,94823.44
2022-08-19T00:38:45.815Z,94810.22
2022-08-19T00:41:22.228Z,94818.72
2022-08-19T00:44:28.007Z,94821.78
2022-08-19T00:46:59.975Z,94807.25
2022-08-19T00:49:33.733Z,94814.13
2022-08-19T00:52:15.127Z,94816.66
2022-08-19T00:54:42.833Z,94791.84
2022-08-19T00:57:13.691Z,94809.03
2022-08-19T01:00:02.013Z,94810.63
2022-08-19T01:02:31.659Z,94807.34
2022-08-19T01:04:59.166Z,94822.78
2022-08-19T01:07:26.085Z,94817.38
2022-08-19T01:09:53.303Z,94818.75
2022-08-19T01:12:20.342Z,94819.50
2022-08-19T01:14:48.732Z,94818.53
2022-08-19T01:17:17.068Z,94817.81
2022-08-19T01:19:47.300Z,94816.34
2022-08-19T01:22:33.718Z,94814.22
2022-08-19T01:25:01.986Z,94813.50
2022-08-19T01:27:43.324Z,94815.81
2022-08-19T01:30:15.349Z,94815.72
2022-08-19T01:32:42.356Z,94814.72
2022-08-19T01:35:09.711Z,94813.91
2022-08-19T01:37:54.450Z,94814.66
2022-08-19T01:40:24.900Z,94810.59
2022-08-19T01:42:53.711Z,94804.72
2022-08-19T01:45:23.332Z,94810.44
2022-08-19T01:47:57.913Z,94809.69
2022-08-19T01:50:28.831Z,94820.28
2022-08-19T01:53:02.245Z,94812.66
2022-08-19T01:55:33.839Z,94812.22
2022-08-19T01:58:03.520Z,94807.38
2022-08-19T02:00:32.249Z,94813.47
2022-08-19T02:02:59.582Z,94814.91
2022-08-19T02:05:26.375Z,94824.63
2022-08-19T02:07:53.389Z,94816.00
2022-08-19T02:10:22.546Z,94819.75
2022-08-19T02:12:50.570Z,94820.53
2022-08-19T02:15:20.414Z,94819.19
2022-08-19T02:17:48.495Z,94821.09
2022-08-19T02:20:16.058Z,94814.03
2022-08-19T02:22:43.539Z,94818.00
2022-08-19T02:25:14.633Z,94818.28
2022-08-19T02:27:43.392Z,94824.31
2022-08-19T02:30:16.705Z,94819.75
2022-08-19T02:32:45.106Z,94820.13
2022-08-19T02:35:13.875Z,94818.84
2022-08-19T02:38:00.947Z,94819.84
2022-08-19T02:40:28.866Z,94822.38
2022-08-19T02:42:57.220Z,94822.28
2022-08-19T02:45:24.259Z,94827.44
2022-08-19T02:47:51.061Z,94824.16
2022-08-19T02:50:18.680Z,94835.75
2022-08-19T02:52:46.453Z,94835.38
2022-08-19T02:55:13.240Z,94843.66
2022-08-19T02:57:40.074Z,94844.69
2022-08-19T03:00:08.198Z,94841.41
2022-08-19T03:02:35.029Z,94844.94
2022-08-19T03:05:04.927Z,94838.53
2022-08-19T03:07:31.923Z,94840.66
2022-08-19T03:09:59.344Z,94813.03
2022-08-19T03:12:26.476Z,94836.22
2022-08-19T03:14:53.808Z,94837.06
2022-08-19T03:17:21.481Z,94834.19
2022-08-19T03:19:48.336Z,94828.22
2022-08-19T03:22:15.171Z,94826.13
2022-08-19T03:24:42.039Z,94826.19
2022-08-19T03:27:08.879Z,94827.47
2022-08-19T03:29:43.902Z,94823.78
2022-08-19T03:32:24.434Z,94832.63
2022-08-19T03:34:58.232Z,94826.06
2022-08-19T03:37:27.012Z,94829.56
2022-08-19T03:39:53.721Z,94837.22
2022-08-19T03:42:32.974Z,94837.56
2022-08-19T03:45:08.491Z,94843.06
2022-08-19T03:47:35.287Z,94852.97
2022-08-19T03:50:02.459Z,94847.22
2022-08-19T03:52:29.346Z,94851.25
2022-08-19T03:54:56.164Z,94857.97
2022-08-19T03:57:30.645Z,94848.75
2022-08-19T04:00:13.267Z,94865.13
2022-08-19T04:02:42.928Z,94853.41
2022-08-19T04:05:27.761Z,94871.66
2022-08-19T04:07:54.972Z,94866.94
2022-08-19T04:10:21.705Z,94866.63
2022-08-19T04:12:48.467Z,94863.94
2022-08-19T04:15:16.429Z,94869.84
2022-08-19T04:17:43.133Z,94871.94
2022-08-19T04:20:10.967Z,94874.22
2022-08-19T04:22:37.823Z,94876.84
2022-08-19T04:25:04.861Z,94876.09
2022-08-19T04:27:32.294Z,94878.00
2022-08-19T04:29:59.041Z,94881.56
2022-08-19T04:32:25.941Z,94883.72
2022-08-19T04:35:02.275Z,94880.56
2022-08-19T04:37:39.551Z,94882.66
2022-08-19T04:40:25.855Z,94886.41
2022-08-19T04:42:52.840Z,94882.16
2022-08-19T04:45:19.852Z,94882.16
2022-08-19T04:47:57.756Z,94877.09
2022-08-19T04:50:29.098Z,94874.22
2022-08-19T04:52:57.081Z,94868.72
2022-08-19T04:55:26.722Z,94878.22
2022-08-19T04:57:57.135Z,94883.28
2022-08-19T05:00:24.536Z,94888.22
2022-08-19T05:02:51.409Z,94888.06
2022-08-19T05:05:18.707Z,94883.28
2022-08-19T05:07:45.462Z,94889.63
2022-08-19T05:10:13.301Z,94886.94
2022-08-19T05:12:40.367Z,94892.38
2022-08-19T05:15:09.616Z,94888.53
2022-08-19T05:17:39.054Z,94886.88
2022-08-19T05:20:27.666Z,94882.53
2022-08-19T05:22:54.616Z,94881.44
2022-08-19T05:25:22.755Z,94880.34
2022-08-19T05:27:50.148Z,94886.75
2022-08-19T05:30:18.184Z,94883.88
2022-08-19T05:32:45.656Z,94885.91
2022-08-19T05:35:12.959Z,94876.03
2022-08-19T05:37:41.333Z,94886.47
2022-08-19T05:40:09.537Z,94883.31
2022-08-19T05:42:36.383Z,94886.97
2022-08-19T05:45:04.862Z,94888.75
2022-08-19T05:47:31.746Z,94896.81
2022-08-19T05:49:58.544Z,94893.81
2022-08-19T05:52:26.399Z,94878.59
2022-08-19T05:54:56.594Z,94878.59
2022-08-19T05:57:25.113Z,94885.47
2022-08-19T05:59:58.373Z,94882.25
2022-08-19T06:02:31.961Z,94889.03
2022-08-19T06:04:59.101Z,94885.09
2022-08-19T06:07:26.416Z,94897.53
2022-08-19T06:10:00.455Z,94884.28
2022-08-19T06:12:32.562Z,94894.03
2022-08-19T06:15:01.627Z,94891.25
2022-08-19T06:17:31.331Z,94883.06
2022-08-19T06:19:59.243Z,94893.34
2022-08-19T06:22:26.255Z,94893.59
2022-08-19T06:24:54.745Z,94897.91
2022-08-19T06:27:22.405Z,94897.09
2022-08-19T06:29:49.281Z,94888.69
2022-08-19T06:32:17.401Z,94892.50
2022-08-19T06:34:44.196Z,94889.84
2022-08-19T06:37:12.262Z,94900.00
2022-08-19T06:39:41.980Z,94893.34
2022-08-19T06:42:12.351Z,94879.38
2022-08-19T06:44:43.243Z,94886.84
2022-08-19T06:47:14.522Z,94890.91
2022-08-19T06:49:43.103Z,94887.06
2022-08-19T06:52:15.366Z,94884.19
2022-08-19T06:54:55.393Z,94877.66
2022-08-19T06:57:24.200Z,94889.69
2022-08-19T06:59:51.018Z,94885.78
2022-08-19T07:04:52.437Z,94889.56
2022-08-19T07:07:21.830Z,94898.63
2022-08-19T07:09:59.318Z,94899.41
2022-08-19T07:12:38.051Z,94894.72
2022-08-19T07:15:06.510Z,94893.31
2022-08-19T07:17:35.785Z,94894.34
2022-08-19T07:20:05.106Z,94884.84
2022-08-19T07:22:33.639Z,94899.78
2022-08-19T07:25:01.343Z,94882.09
2022-08-19T07:27:28.080Z,94896.59
2022-08-19T07:29:55.945Z,94883.63
2022-08-19T07:32:28.970Z,94889.03
2022-08-19T07:34:57.040Z,94889.78
2022-08-19T07:37:33.161Z,94896.34
2022-08-19T07:40:02.086Z,94884.41
2022-08-19T07:42:30.900Z,94885.22
2022-08-19T07:44:59.861Z,94882.16
2022-08-19T07:47:58.510Z,94888.44
2022-08-19T07:50:14.092Z,94882.31
2022-08-19T07:52:41.436Z,94881.53
2022-08-19T07:55:39.940Z,94886.94
2022-08-19T07:57:58.083Z,94886.16
2022-08-19T08:00:25.616Z,94886.94
2022-08-19T08:02:55.450Z,94883.09
2022-08-19T08:05:44.012Z,94867.97
2022-08-19T08:08:27.711Z,94879.19
2022-08-19T08:10:57.106Z,94886.47
2022-08-19T08:13:25.382Z,94880.31
2022-08-19T08:15:56.456Z,94873.97
2022-08-19T08:18:27.999Z,94871.19
2022-08-19T08:20:58.320Z,94865.88
2022-08-19T08:23:26.797Z,94861.88
2022-08-19T08:25:57.988Z,94867.53
2022-08-19T08:28:26.199Z,94857.38
2022-08-19T08:30:57.652Z,94860.78
2022-08-19T08:33:29.985Z,94863.50
2022-08-19T08:36:09.067Z,94861.94
2022-08-19T08:38:41.793Z,94858.75
2022-08-19T08:41:22.287Z,94857.00
2022-08-19T08:43:53.952Z,94854.78
2022-08-19T08:46:50.519Z,94849.19
2022-08-19T08:49:54.214Z,94850.63
2022-08-19T08:52:32.189Z,94846.66
2022-08-19T08:55:10.180Z,94842.91
2022-08-19T08:57:57.638Z,94824.72
2022-08-19T09:00:27.706Z,94835.78
2022-08-19T09:02:59.190Z,94837.84
2022-08-19T09:05:51.748Z,94831.84
2022-08-19T09:08:46.065Z,94837.66
2022-08-19T09:11:43.067Z,94826.19
2022-08-19T09:14:49.348Z,94821.84
2022-08-19T09:17:15.276Z,94823.19
2022-08-19T09:20:11.195Z,94807.28
2022-08-19T09:22:40.081Z,94818.47
2022-08-19T09:25:09.086Z,94822.44
2022-08-19T09:27:42.946Z,94818.25
2022-08-19T09:30:22.907Z,94809.03
2022-08-19T09:32:53.057Z,94809.69
2022-08-19T09:35:24.419Z,94808.47
2022-08-19T09:37:57.285Z,94807.13
2022-08-19T09:40:30.077Z,94806.72
2022-08-19T09:42:58.695Z,94798.63
2022-08-19T09:45:25.521Z,94814.50
2022-08-19T09:47:54.811Z,94802.81
2022-08-19T09:50:24.168Z,94803.38
2022-08-19T09:52:57.058Z,94794.75
2022-08-19T09:55:31.110Z,94784.72
2022-08-19T09:58:02.864Z,94788.69
2022-08-19T10:00:30.180Z,94795.63
2022-08-19T10:02:57.146Z,94787.69
2022-08-19T10:05:42.710Z,94785.31
2022-08-19T10:08:13.239Z,94783.88
2022-08-19T10:10:46.513Z,94776.53
2022-08-19T10:13:16.757Z,94775.13
2022-08-19T10:15:47.766Z,94767.78
2022-08-19T10:18:18.859Z,94768.91
2022-08-19T10:20:51.349Z,94771.09
2022-08-19T10:23:20.866Z,94759.78
2022-08-19T10:25:49.241Z,94772.75
2022-08-19T10:28:16.248Z,94770.44
2022-08-19T10:30:46.091Z,94761.13
2022-08-19T10:33:15.013Z,94762.16
2022-08-19T10:35:42.824Z,94756.81
2022-08-19T10:38:31.612Z,94747.84
2022-08-19T10:41:07.652Z,94753.03
2022-08-19T10:43:38.157Z,94753.34
2022-08-19T10:46:16.583Z,94747.66
2022-08-19T10:48:44.905Z,94749.50
2022-08-19T10:51:31.708Z,94752.00
2022-08-19T10:53:59.670Z,94735.16
2022-08-19T10:56:45.779Z,94740.84
2022-08-19T10:59:14.677Z,94735.28
2022-08-19T11:01:43.898Z,94745.66
2022-08-19T11:04:14.506Z,94741.66
2022-08-19T11:06:44.503Z,94739.13
2022-08-19T11:09:14.770Z,94744.28
2022-08-19T11:11:42.409Z,94719.50
2022-08-19T11:14:15.663Z,94742.63
2022-08-19T11:16:43.756Z,94734.72
2022-08-19T11:19:12.375Z,94743.25
2022-08-19T11:21:42.567Z,94736.31
2022-08-19T11:24:13.960Z,94740.03
2022-08-19T11:26:44.627Z,94714.91
2022-08-19T11:29:14.002Z,94729.94
2022-08-19T11:31:45.052Z,94730.53
2022-08-19T11:34:15.736Z,94718.28
2022-08-19T11:36:45.869Z,94717.38
2022-08-19T11:39:17.819Z,94717.56
2022-08-19T11:41:44.574Z,94718.44
2022-08-19T11:44:11.407Z,94713.94
2022-08-19T11:46:39.125Z,94705.38
2022-08-19T11:49:13.889Z,94705.75
2022-08-19T11:51:43.907Z,94703.13
2022-08-19T11:54:13.738Z,94702.75
2022-08-19T11:56:41.195Z,94686.56
2022-08-19T11:59:12.760Z,94698.81
2022-08-19T12:01:43.549Z,94691.44
2022-08-19T12:04:11.105Z,94687.84
2022-08-19T12:06:40.523Z,94683.28
2022-08-19T12:09:10.601Z,94682.88
2022-08-19T12:11:39.436Z,94672.25
2022-08-19T12:14:06.885Z,94676.28
2022-08-19T12:16:34.373Z,94677.50
2022-08-19T12:19:05.957Z,94673.84
2022-08-19T12:21:34.991Z,94659.63
2022-08-19T12:24:03.761Z,94668.91
2022-08-19T12:26:32.367Z,94663.97
2022-08-19T12:29:00.516Z,94656.44
2022-08-19T12:31:29.760Z,94651.00
2022-08-19T12:33:56.907Z,94645.31
2022-08-19T12:36:25.799Z,94643.50
2022-08-19T12:38:53.519Z,94645.34
2022-08-19T12:41:23.187Z,94634.22
2022-08-19T12:43:50.833Z,94645.97
2022-08-19T12:46:20.452Z,94635.44
2022-08-19T12:48:53.296Z,94636.06
2022-08-19T12:51:22.758Z,94633.41
2022-08-19T12:53:50.842Z,94629.84
2022-08-19T12:56:22.836Z,94631.53
2022-08-19T12:58:50.680Z,94630.75
2022-08-19T13:01:22.866Z,94630.47
2022-08-19T13:03:53.496Z,94622.34
2022-08-19T13:06:21.257Z,94629.41
2022-08-19T13:08:48.252Z,94627.13
2022-08-19T13:11:19.010Z,94631.25
2022-08-19T13:13:48.332Z,94622.09
2022-08-19T13:16:16.016Z,94630.94
2022-08-19T13:18:45.025Z,94623.69
2022-08-19T13:21:15.077Z,94617.66
2022-08-19T13:23:42.953Z,94616.44
2022-08-19T13:26:12.516Z,94613.34
2022-08-19T13:28:59.277Z,94615.50
2022-08-19T13:31:46.703Z,94609.69
2022-08-19T13:34:14.357Z,94609.00
2022-08-19T13:36:41.567Z,94597.94
2022-08-19T13:39:10.263Z,94595.63
2022-08-19T13:41:38.141Z,94600.19
2022-08-19T13:44:07.361Z,94608.44
2022-08-19T13:46:34.224Z,94597.22
2022-08-19T13:49:01.074Z,94595.84
2022-08-19T13:51:27.994Z,94587.28
2022-08-19T13:53:56.297Z,94593.47
2022-08-19T13:56:26.018Z,94594.59
2022-08-19T13:58:54.403Z,94588.13
2022-08-19T14:01:25.267Z,94583.59
2022-08-19T14:03:52.409Z,94579.25
2022-08-19T14:06:19.900Z,94583.44
2022-08-19T14:08:48.162Z,94585.75
2022-08-19T14:11:15.619Z,94577.84
2022-08-19T14:13:42.505Z,94589.81
2022-08-19T14:16:12.304Z,94591.34
2022-08-19T14:18:40.231Z,94588.69
2022-08-19T14:21:07.967Z,94584.63
2022-08-19T14:23:37.043Z,94581.09
2022-08-19T14:26:06.593Z,94580.97
2022-08-19T14:28:33.417Z,94582.22
2022-08-19T14:31:00.423Z,94578.28
2022-08-19T14:33:27.512Z,94566.16
2022-08-19T14:35:59.995Z,94576.13
2022-08-19T14:38:31.120Z,94580.03
2022-08-19T14:41:20.392Z,94565.72
2022-08-19T14:43:50.862Z,94571.19
2022-08-19T14:46:22.996Z,94570.41
2022-08-19T14:48:51.712Z,94563.84
2022-08-19T14:51:21.656Z,94571.38
2022-08-19T14:53:51.468Z,94569.66
2022-08-19T14:56:24.648Z,94555.59
2022-08-19T14:58:52.681Z,94557.41
2022-08-19T15:01:22.325Z,94565.72
2022-08-19T15:03:50.547Z,94559.09
2022-08-19T15:06:17.487Z,94555.25
2022-08-19T15:08:45.817Z,94553.00
2022-08-19T15:11:16.851Z,94567.06
2022-08-19T15:13:45.103Z,94559.59
2022-08-19T15:16:18.276Z,94556.72
2022-08-19T15:18:47.003Z,94565.06
2022-08-19T15:21:27.516Z,94555.19
2022-08-19T15:23:57.515Z,94555.41
2022-08-19T15:26:27.324Z,94551.75
2022-08-19T15:28:54.920Z,94553.09
2022-08-19T15:31:27.902Z,94541.53
2022-08-19T15:34:00.446Z,94542.94
2022-08-19T15:36:28.088Z,94543.31
2022-08-19T15:38:56.522Z,94548.56
2022-08-19T15:41:30.595Z,94545.16
2022-08-19T15:44:09.763Z,94548.25
2022-08-19T15:46:39.977Z,94547.06
2022-08-19T15:49:08.217Z,94548.59
2022-08-19T15:51:36.834Z,94546.31
2022-08-19T15:54:06.672Z,94536.22
2022-08-19T15:56:58.241Z,94541.91
2022-08-19T15:59:47.256Z,94544.66
2022-08-19T16:02:34.418Z,94548.41
2022-08-19T16:05:20.286Z,94552.38
2022-08-19T16:07:47.978Z,94552.41
2022-08-19T16:10:27.011Z,94558.81
2022-08-19T16:12:55.932Z,94550.81
2022-08-19T16:15:23.486Z,94548.66
2022-08-19T16:17:56.382Z,94557.97
2022-08-19T16:20:24.710Z,94550.72
2022-08-19T16:22:52.935Z,94558.66
2022-08-19T16:25:19.688Z,94551.56
2022-08-19T16:27:56.260Z,94550.03
2022-08-19T16:30:33.228Z,94556.09
2022-08-19T16:33:00.048Z,94557.03
2022-08-19T16:35:26.816Z,94562.19
2022-08-19T16:37:53.745Z,94555.41
2022-08-19T16:40:20.921Z,94561.78
2022-08-19T16:42:47.785Z,94559.94
2022-08-19T16:45:15.879Z,94555.31
2022-08-19T16:47:42.806Z,94559.09
2022-08-19T16:50:09.723Z,94556.91
2022-08-19T16:52:37.491Z,94555.38
2022-08-19T16:55:06.282Z,94548.69
2022-08-19T16:57:33.296Z,94561.53
2022-08-19T17:00:07.024Z,94559.00
2022-08-19T17:02:35.212Z,94562.81
2022-08-19T17:05:03.144Z,94564.47
2022-08-19T17:07:33.366Z,94561.09
2022-08-19T17:10:01.631Z,94558.22
2022-08-19T17:12:31.852Z,94574.34
2022-08-19T17:15:02.628Z,94580.34
2022-08-19T17:17:30.183Z,94577.00
2022-08-19T17:19:59.274Z,94579.97
2022-08-19T17:22:26.923Z,94583.91
2022-08-19T17:24:56.044Z,94588.03
2022-08-19T17:27:24.748Z,94584.69
2022-08-19T17:29:53.020Z,94592.47
2022-08-19T17:32:24.746Z,94593.69
2022-08-19T17:34:54.191Z,94594.56
2022-08-19T17:37:21.225Z,94602.84
2022-08-19T17:39:48.043Z,94600.84
2022-08-19T17:42:15.033Z,94611.66
2022-08-19T17:44:42.149Z,94606.41
2022-08-19T17:47:12.774Z,94605.94
2022-08-19T17:49:39.734Z,94610.66
2022-08-19T17:52:09.904Z,94618.78
2022-08-19T17:54:37.416Z,94616.59
2022-08-19T17:57:04.371Z,94615.13
2022-08-19T17:59:31.189Z,94619.09
2022-08-19T18:01:59.669Z,94628.34
2022-08-19T18:04:30.134Z,94629.22
2022-08-19T18:06:57.314Z,94624.06
2022-08-19T18:09:40.379Z,94623.31
2022-08-19T18:12:14.179Z,94626.38
2022-08-19T18:14:41.700Z,94623.53
2022-08-19T18:17:12.793Z,94632.56
2022-08-19T18:19:43.265Z,94626.69
2022-08-19T18:22:30.620Z,94635.38
2022-08-19T18:24:58.730Z,94629.72
2022-08-19T18:27:28.347Z,94632.56
2022-08-19T18:29:59.245Z,94638.28
2022-08-19T18:32:32.352Z,94646.88
2022-08-19T18:35:05.482Z,94641.34
2022-08-19T18:37:32.240Z,94634.69
2022-08-19T18:40:17.744Z,94636.25
2022-08-19T18:43:04.470Z,94630.03
2022-08-19T18:45:50.460Z,94624.97
2022-08-19T18:48:35.974Z,94640.16
2022-08-19T18:51:04.107Z,94649.06
2022-08-19T18:53:35.140Z,94643.25
2022-08-19T18:56:02.071Z,94648.88
2022-08-19T18:58:34.901Z,94650.88
2022-08-19T19:01:12.528Z,94637.53
2022-08-19T19:03:49.097Z,94645.63
2022-08-19T19:06:23.257Z,94658.41
2022-08-19T19:08:51.443Z,94664.94
2022-08-19T19:11:31.491Z,94668.25
2022-08-19T19:14:02.070Z,94672.19
2022-08-19T19:16:30.396Z,94675.66
2022-08-19T19:18:57.560Z,94672.00
2022-08-19T19:21:26.476Z,94679.31
2022-08-19T19:23:55.510Z,94679.56
2022-08-19T19:26:23.016Z,94683.81
2022-08-19T19:28:51.413Z,94696.06
2022-08-19T19:31:26.465Z,94691.00
2022-08-19T19:33:57.805Z,94686.94
2022-08-19T19:36:26.160Z,94700.63
2022-08-19T19:38:53.133Z,94701.31
2022-08-19T19:41:26.064Z,94701.25
2022-08-19T19:44:23.102Z,94715.16
2022-08-19T19:46:43.167Z,94709.38
2022-08-19T19:49:10.970Z,94710.41
2022-08-19T19:51:39.534Z,94706.75
2022-08-19T19:54:22.983Z,94706.06
2022-08-19T19:56:50.410Z,94710.66
2022-08-19T19:59:17.906Z,94710.47
2022-08-19T20:01:46.579Z,94714.06
2022-08-19T20:04:16.121Z,94710.31
2022-08-19T20:06:43.969Z,94710.69
2022-08-19T20:09:10.993Z,94707.41
2022-08-19T20:11:41.767Z,94703.88
2022-08-19T20:14:15.412Z,94709.50
2022-08-19T20:16:44.042Z,94708.53
2022-08-19T20:19:13.432Z,94715.66
2022-08-19T20:21:43.756Z,94718.34
2022-08-19T20:24:14.117Z,94716.53
2022-08-19T20:26:42.696Z,94716.38
2022-08-19T20:29:38.505Z,94699.88
2022-08-19T20:31:59.466Z,94728.38
2022-08-19T20:34:28.003Z,94706.31
2022-08-19T20:36:54.862Z,94722.53
2022-08-19T20:39:21.651Z,94726.38
2022-08-19T20:41:48.841Z,94729.66
2022-08-19T20:44:15.729Z,94730.41
2022-08-19T20:46:42.908Z,94728.31
2022-08-19T20:49:26.940Z,94726.78
2022-08-19T20:51:56.192Z,94730.69
2022-08-19T20:54:24.053Z,94740.78
2022-08-19T20:56:51.898Z,94745.59
2022-08-19T20:59:20.103Z,94762.00
2022-08-19T21:01:47.993Z,94759.28
2022-08-19T21:04:14.836Z,94767.44
2022-08-19T21:06:45.490Z,94758.03
2022-08-19T21:09:13.781Z,94759.53
2022-08-19T21:11:41.169Z,94762.59
2022-08-19T21:14:08.471Z,94765.34
2022-08-19T21:16:35.518Z,94758.91
2022-08-19T21:19:02.692Z,94756.56
2022-08-19T21:21:29.380Z,94750.34
2022-08-19T21:23:57.066Z,94744.56
2022-08-19T21:26:24.450Z,94750.34
2022-08-19T21:28:51.488Z,94744.88
2022-08-19T21:31:18.566Z,94742.72
2022-08-19T21:33:45.739Z,94754.63
2022-08-19T21:36:12.522Z,94753.88
2022-08-19T21:38:39.616Z,94759.28
2022-08-19T21:41:06.813Z,94758.91
2022-08-19T21:43:35.972Z,94755.06
2022-08-19T21:46:03.456Z,94755.59
2022-08-19T21:48:30.366Z,94755.97
2022-08-19T21:50:57.169Z,94755.53
2022-08-19T21:53:24.219Z,94756.09
2022-08-19T21:55:53.693Z,94755.22
2022-08-19T21:58:29.210Z,94755.31
2022-08-19T22:01:05.698Z,94750.75
2022-08-19T22:03:37.281Z,94753.03
2022-08-19T22:06:04.906Z,94750.63
2022-08-19T22:08:31.975Z,94757.59
2022-08-19T22:11:01.672Z,94753.00
2022-08-19T22:13:31.007Z,94749.91
2022-08-19T22:15:57.863Z,94744.44
2022-08-19T22:18:24.755Z,94751.13
2022-08-19T22:20:51.750Z,94749.19
2022-08-19T22:23:19.684Z,94748.47
2022-08-19T22:25:47.128Z,94738.41
2022-08-19T22:28:18.735Z,94738.41
2022-08-19T22:30:47.186Z,94746.91
2022-08-19T22:33:21.275Z,94740.75
2022-08-19T22:35:48.677Z,94736.13
2022-08-19T22:38:16.398Z,94738.44
2022-08-19T22:40:47.516Z,94710.63
2022-08-19T22:43:24.309Z,94722.97
2022-08-19T22:45:53.315Z,94720.28
2022-08-19T22:48:24.149Z,94723.75
2022-08-19T22:51:11.141Z,94722.19
2022-08-19T22:53:41.212Z,94722.56
2022-08-19T22:56:14.970Z,94716.03
2022-08-19T22:58:42.608Z,94719.84
2022-08-19T23:01:12.965Z,94718.34
2022-08-19T23:03:52.249Z,94729.91
2022-08-19T23:06:19.028Z,94726.09
2022-08-19T23:08:45.758Z,94726.84
2022-08-19T23:11:12.815Z,94724.50
2022-08-19T23:13:41.183Z,94723.75
2022-08-19T23:16:08.829Z,94714.41
2022-08-19T23:18:35.664Z,94713.66
2022-08-19T23:21:02.856Z,94716.00
2022-08-19T23:23:29.660Z,94707.50
2022-08-19T23:25:57.150Z,94711.38
2022-08-19T23:28:42.714Z,94711.38
2022-08-19T23:31:11.380Z,94712.19
2022-08-19T23:33:50.811Z,94717.19
2022-08-19T23:36:19.869Z,94703.25
2022-08-19T23:38:48.478Z,94696.28
2022-08-19T23:41:18.403Z,94695.56
2022-08-19T23:43:45.869Z,94690.13
2022-08-19T23:46:28.099Z,94690.13
2022-08-19T23:48:56.686Z,94696.28
2022-08-19T23:51:26.635Z,94688.19
2022-08-19T23:53:54.037Z,94681.25
2022-08-19T23:56:21.545Z,94682.75
2022-08-19T23:58:49.166Z,94676.97
